createdAt,value
2023-02-11T00:01:01.649Z,63.85
2023-02-11T00:03:33.118Z,65.58
2023-02-11T00:06:16.936Z,64.12
2023-02-11T00:09:15.309Z,61.93
2023-02-11T00:11:43.899Z,59.81
2023-02-11T00:14:18.053Z,57.35
2023-02-11T00:16:51.814Z,56.65
2023-02-11T00:19:43.177Z,56.84
2023-02-11T00:22:11.725Z,58.54
2023-02-11T00:24:54.328Z,58.13
2023-02-11T00:27:22.906Z,59.05
2023-02-11T00:29:56.107Z,60.36
2023-02-11T00:32:26.590Z,59.84
2023-02-11T00:34:57.578Z,59.44
2023-02-11T00:37:29.422Z,60.47
2023-02-11T00:39:57.433Z,62.33
2023-02-11T00:42:25.661Z,67.78
2023-02-11T00:44:56.906Z,69.35
2023-02-11T00:47:32.778Z,66.34
2023-02-11T00:50:05.537Z,64.09
2023-02-11T00:52:34.398Z,62.53
2023-02-11T00:55:04.244Z,60.73
2023-02-11T00:57:34.557Z,59.03
2023-02-11T01:00:06.695Z,56.70
2023-02-11T01:02:36.013Z,58.66
2023-02-11T01:05:06.012Z,58.83
2023-02-11T01:07:54.551Z,60.95
2023-02-11T01:10:26.767Z,61.01
2023-02-11T01:12:57.600Z,61.78
2023-02-11T01:15:26.713Z,66.28
2023-02-11T01:17:57.974Z,66.51
2023-02-11T01:20:35.019Z,65.52
2023-02-11T01:23:11.417Z,62.96
2023-02-11T01:25:48.634Z,61.28
2023-02-11T01:28:23.533Z,58.59
2023-02-11T01:30:54.978Z,58.54
2023-02-11T01:33:26.091Z,60.01
2023-02-11T01:36:04.000Z,60.34
2023-02-11T01:38:32.790Z,63.49
2023-02-11T01:41:23.680Z,66.13
2023-02-11T01:43:52.278Z,64.51
2023-02-11T01:46:37.930Z,62.55
2023-02-11T01:49:12.717Z,60.86
2023-02-11T01:51:46.719Z,59.41
2023-02-11T01:54:44.043Z,58.08
2023-02-11T01:57:22.461Z,60.16
2023-02-11T02:00:25.138Z,62.73
2023-02-11T02:03:08.594Z,64.23
2023-02-11T02:06:24.876Z,62.97
2023-02-11T02:09:20.078Z,60.81
2023-02-11T02:11:51.730Z,59.98
2023-02-11T02:14:20.331Z,57.40
2023-02-11T02:16:48.699Z,57.64
2023-02-11T02:19:45.125Z,60.03
2023-02-11T02:23:15.910Z,62.84
2023-02-11T02:27:01.138Z,64.23
2023-02-11T02:30:29.365Z,60.89
2023-02-11T02:33:22.316Z,58.63
2023-02-11T02:36:12.198Z,59.26
2023-02-11T02:39:04.965Z,61.35
2023-02-11T02:41:36.168Z,64.65
2023-02-11T02:44:13.172Z,63.95
2023-02-11T02:46:44.876Z,62.52
2023-02-11T02:49:16.957Z,60.65
2023-02-11T02:51:56.774Z,60.18
2023-02-11T02:55:12.939Z,58.52
2023-02-11T02:58:29.191Z,58.34
2023-02-11T03:01:28.193Z,60.66
2023-02-11T03:04:27.242Z,64.55
2023-02-11T03:07:03.382Z,64.92
2023-02-11T03:09:40.673Z,62.93
2023-02-11T03:12:12.081Z,61.34
2023-02-11T03:14:41.115Z,59.41
2023-02-11T03:17:12.111Z,59.36
2023-02-11T03:19:44.942Z,60.35
2023-02-11T03:23:24.791Z,60.29
2023-02-11T03:26:06.179Z,64.76
2023-02-11T03:29:10.453Z,63.99
2023-02-11T03:32:30.227Z,62.76
2023-02-11T03:35:12.543Z,60.37
2023-02-11T03:37:55.741Z,58.18
2023-02-11T03:40:55.587Z,55.89
2023-02-11T03:43:58.286Z,57.52
2023-02-11T03:46:39.949Z,60.52
2023-02-11T03:49:25.114Z,61.08
2023-02-11T03:51:58.921Z,64.76
2023-02-11T03:54:37.432Z,64.47
2023-02-11T03:57:16.778Z,62.76
2023-02-11T04:00:01.018Z,61.26
2023-02-11T04:02:45.760Z,59.43
2023-02-11T04:05:27.263Z,56.61
2023-02-11T04:08:03.844Z,57.12
2023-02-11T04:10:35.692Z,60.90
2023-02-11T04:13:22.519Z,59.70
2023-02-11T04:16:12.049Z,64.12
2023-02-11T04:18:40.647Z,66.28
2023-02-11T04:21:14.590Z,64.12
2023-02-11T04:24:17.192Z,61.65
2023-02-11T04:27:11.207Z,59.03
2023-02-11T04:30:01.533Z,57.11
2023-02-11T04:32:54.959Z,58.79
2023-02-11T04:35:32.667Z,59.86
2023-02-11T04:38:03.107Z,64.28
2023-02-11T04:40:37.226Z,64.48
2023-02-11T04:43:07.863Z,62.01
2023-02-11T04:45:36.505Z,60.20
2023-02-11T04:48:10.343Z,57.57
2023-02-11T04:50:41.870Z,57.15
2023-02-11T04:53:10.163Z,60.08
2023-02-11T04:55:38.639Z,61.36
2023-02-11T04:58:07.354Z,63.87
2023-02-11T05:00:35.509Z,63.70
2023-02-11T05:03:09.922Z,61.09
2023-02-11T05:05:45.186Z,59.52
2023-02-11T05:08:13.744Z,57.63
2023-02-11T05:10:47.383Z,58.93
2023-02-11T05:13:18.179Z,60.83
2023-02-11T05:15:46.452Z,62.56
2023-02-11T05:18:22.266Z,64.63
2023-02-11T05:20:50.685Z,62.30
2023-02-11T05:23:21.411Z,60.14
2023-02-11T05:25:52.857Z,59.35
2023-02-11T05:28:24.098Z,56.91
2023-02-11T05:30:55.511Z,57.48
2023-02-11T05:33:26.190Z,58.40
2023-02-11T05:36:18.528Z,62.87
2023-02-11T05:38:52.953Z,64.39
2023-02-11T05:41:43.921Z,62.34
2023-02-11T05:44:14.787Z,59.73
2023-02-11T05:46:53.099Z,58.12
2023-02-11T05:49:21.684Z,59.69
2023-02-11T05:52:01.228Z,61.51
2023-02-11T05:54:29.601Z,63.23
2023-02-11T05:57:15.897Z,61.41
2023-02-11T05:59:49.699Z,60.70
2023-02-11T06:02:34.106Z,58.04
2023-02-11T06:05:11.207Z,57.22
2023-02-11T06:07:39.501Z,58.92
2023-02-11T06:10:08.560Z,59.95
2023-02-11T06:12:41.901Z,62.56
2023-02-11T06:15:09.970Z,64.31
2023-02-11T06:17:49.706Z,62.54
2023-02-11T06:20:20.880Z,61.00
2023-02-11T06:22:49.540Z,58.16
2023-02-11T06:25:18.327Z,56.29
2023-02-11T06:27:51.931Z,58.32
2023-02-11T06:30:25.433Z,59.90
2023-02-11T06:32:57.771Z,62.66
2023-02-11T06:35:29.146Z,63.28
2023-02-11T06:38:00.641Z,61.58
2023-02-11T06:40:31.371Z,58.71
2023-02-11T06:43:02.743Z,57.94
2023-02-11T06:45:34.333Z,59.37
2023-02-11T06:48:05.446Z,60.18
2023-02-11T06:50:33.994Z,59.88
2023-02-11T06:53:13.284Z,63.01
2023-02-11T06:55:41.568Z,64.45
2023-02-11T06:58:26.048Z,62.99
2023-02-11T07:00:54.699Z,60.02
2023-02-11T07:03:26.004Z,57.15
2023-02-11T07:06:21.666Z,57.61
2023-02-11T07:08:49.874Z,57.75
2023-02-11T07:11:47.222Z,59.20
2023-02-11T07:14:18.744Z,59.79
2023-02-11T07:16:46.914Z,62.61
2023-02-11T07:19:26.379Z,63.95
2023-02-11T07:22:21.147Z,59.51
2023-02-11T07:24:55.210Z,56.07
2023-02-11T07:27:26.919Z,57.89
2023-02-11T07:29:58.157Z,58.70
2023-02-11T07:32:35.968Z,57.80
2023-02-11T07:35:05.515Z,60.93
2023-02-11T07:37:39.268Z,59.47
2023-02-11T07:40:11.782Z,61.38
2023-02-11T07:42:42.675Z,60.82
2023-02-11T07:45:14.340Z,63.73
2023-02-11T07:47:43.122Z,62.69
2023-02-11T07:50:18.060Z,57.65
2023-02-11T07:52:51.955Z,55.91
2023-02-11T07:55:31.187Z,57.83
2023-02-11T07:58:24.892Z,58.34
2023-02-11T08:01:30.016Z,58.73
2023-02-11T08:04:05.228Z,59.24
2023-02-11T08:06:38.127Z,59.61
2023-02-11T08:09:26.124Z,59.36
2023-02-11T08:12:03.338Z,60.38
2023-02-11T08:15:00.495Z,60.74
2023-02-11T08:17:28.889Z,60.37
2023-02-11T08:20:03.857Z,60.13
2023-02-11T08:22:54.458Z,60.71
2023-02-11T08:26:27.477Z,59.57
2023-02-11T08:29:28.578Z,59.93
2023-02-11T08:32:16.345Z,59.93
2023-02-11T08:34:51.990Z,59.31
2023-02-11T08:37:20.605Z,59.61
2023-02-11T08:39:58.188Z,59.75
2023-02-11T08:42:26.463Z,58.90
2023-02-11T08:45:06.412Z,58.89
2023-02-11T08:47:38.071Z,58.97
2023-02-11T08:50:07.240Z,59.03
2023-02-11T08:52:58.783Z,58.86
2023-02-11T08:55:27.064Z,59.02
2023-02-11T08:57:57.914Z,58.55
2023-02-11T09:00:26.414Z,57.74
2023-02-11T09:02:55.570Z,57.30
2023-02-11T09:05:29.170Z,57.21
2023-02-11T09:08:00.011Z,57.55
2023-02-11T09:10:34.661Z,57.09
2023-02-11T09:13:03.212Z,57.46
2023-02-11T09:15:33.705Z,55.98
2023-02-11T09:18:21.286Z,56.55
2023-02-11T09:20:52.984Z,56.73
2023-02-11T09:23:21.496Z,56.19
2023-02-11T09:25:55.415Z,55.62
2023-02-11T09:28:26.923Z,55.36
2023-02-11T09:30:57.719Z,55.30
2023-02-11T09:33:27.246Z,55.17
2023-02-11T09:35:55.781Z,55.72
2023-02-11T09:38:33.208Z,54.64
2023-02-11T09:41:24.856Z,54.90
2023-02-11T09:43:57.534Z,55.18
2023-02-11T09:46:31.546Z,55.63
2023-02-11T09:48:59.964Z,55.36
2023-02-11T09:51:54.766Z,55.48
2023-02-11T09:54:51.093Z,54.79
2023-02-11T09:57:28.591Z,54.92
2023-02-11T10:01:14.057Z,54.49
2023-02-11T10:03:59.576Z,54.66
2023-02-11T10:06:55.704Z,55.26
2023-02-11T10:09:52.729Z,55.79
2023-02-11T10:12:29.402Z,55.80
2023-02-11T10:15:21.825Z,55.28
2023-02-11T10:18:21.807Z,55.76
2023-02-11T10:21:34.682Z,55.78
2023-02-11T10:24:06.388Z,55.49
2023-02-11T10:26:43.931Z,55.66
2023-02-11T10:29:40.487Z,55.20
2023-02-11T10:32:22.991Z,55.33
2023-02-11T10:34:51.656Z,55.13
2023-02-11T10:37:22.782Z,55.16
2023-02-11T10:39:54.106Z,54.34
2023-02-11T10:42:22.732Z,54.13
2023-02-11T10:45:03.616Z,53.41
2023-02-11T10:47:37.591Z,53.48
2023-02-11T10:50:47.475Z,53.31
2023-02-11T10:53:22.315Z,53.86
2023-02-11T10:56:03.526Z,53.59
2023-02-11T10:58:56.523Z,54.23
2023-02-11T11:01:49.287Z,54.12
2023-02-11T11:04:33.948Z,54.13
2023-02-11T11:07:27.398Z,54.11
2023-02-11T11:10:06.256Z,54.55
2023-02-11T11:12:49.650Z,54.83
2023-02-11T11:15:28.111Z,54.47
2023-02-11T11:18:22.518Z,54.54
2023-02-11T11:21:12.902Z,54.30
2023-02-11T11:23:41.178Z,54.50
2023-02-11T11:26:55.474Z,54.52
2023-02-11T11:29:48.443Z,54.75
2023-02-11T11:32:24.097Z,53.94
2023-02-11T11:34:59.623Z,53.65
2023-02-11T11:37:46.840Z,53.41
2023-02-11T11:40:23.705Z,53.86
2023-02-11T11:43:21.331Z,54.14
2023-02-11T11:46:00.469Z,54.19
2023-02-11T11:48:55.378Z,54.65
2023-02-11T11:51:26.530Z,55.19
2023-02-11T11:54:01.730Z,54.72
2023-02-11T11:56:35.010Z,54.71
2023-02-11T11:59:11.575Z,55.16
2023-02-11T12:02:03.524Z,54.78
2023-02-11T12:05:00.961Z,55.13
2023-02-11T12:08:23.377Z,55.53
2023-02-11T12:11:27.696Z,55.50
2023-02-11T12:14:40.929Z,55.76
2023-02-11T12:18:04.137Z,55.97
2023-02-11T12:21:16.022Z,55.86
2023-02-11T12:24:29.653Z,56.06
2023-02-11T12:27:26.283Z,56.53
2023-02-11T12:30:15.585Z,57.08
2023-02-11T12:33:20.163Z,57.35
2023-02-11T12:36:02.649Z,57.51
2023-02-11T12:38:40.481Z,58.02
2023-02-11T12:41:56.107Z,58.25
2023-02-11T12:44:51.980Z,58.47
2023-02-11T12:47:47.108Z,58.85
2023-02-11T12:50:39.183Z,59.18
2023-02-11T12:53:47.655Z,59.52
2023-02-11T12:56:29.727Z,60.00
2023-02-11T12:58:59.313Z,60.14
2023-02-11T13:01:30.852Z,60.27
2023-02-11T13:04:13.088Z,60.32
2023-02-11T13:06:47.098Z,60.77
2023-02-11T13:09:29.296Z,61.45
2023-02-11T13:12:19.115Z,61.79
2023-02-11T13:14:47.579Z,62.60
2023-02-11T13:18:21.995Z,62.61
2023-02-11T13:22:02.869Z,58.74
2023-02-11T13:25:06.777Z,58.89
2023-02-11T13:27:51.454Z,60.50
2023-02-11T13:30:37.175Z,61.53
2023-02-11T13:33:14.712Z,63.05
2023-02-11T13:36:11.222Z,65.96
2023-02-11T13:38:39.727Z,60.02
2023-02-11T13:41:29.539Z,58.86
2023-02-11T13:44:30.248Z,60.15
2023-02-11T13:47:02.494Z,62.53
2023-02-11T13:50:19.720Z,62.57
2023-02-11T13:53:44.961Z,60.19
2023-02-11T13:56:40.847Z,58.80
2023-02-11T13:59:27.704Z,61.24
2023-02-11T14:02:41.132Z,62.71
2023-02-11T14:05:31.293Z,63.05
2023-02-11T14:08:32.650Z,62.48
2023-02-11T14:11:12.480Z,60.38
2023-02-11T14:13:54.897Z,59.70
2023-02-11T14:16:37.316Z,62.46
2023-02-11T14:19:17.564Z,65.13
2023-02-11T14:21:45.838Z,63.86
2023-02-11T14:24:14.733Z,61.70
2023-02-11T14:27:05.941Z,62.17
2023-02-11T14:29:53.579Z,61.71
2023-02-11T14:33:05.328Z,59.38
2023-02-11T14:36:33.942Z,61.03
2023-02-11T14:39:20.463Z,65.57
2023-02-11T14:41:49.348Z,63.88
2023-02-11T14:44:35.527Z,62.94
2023-02-11T14:47:07.301Z,61.64
2023-02-11T14:49:56.331Z,62.15
2023-02-11T14:52:33.240Z,62.18
2023-02-11T14:55:55.273Z,61.93
2023-02-11T14:58:32.265Z,59.93
2023-02-11T15:01:03.940Z,58.72
2023-02-11T15:03:40.891Z,59.46
2023-02-11T15:06:20.967Z,65.92
2023-02-11T15:08:56.528Z,68.17
2023-02-11T15:11:25.783Z,63.43
2023-02-11T15:13:57.276Z,62.54
2023-02-11T15:16:27.626Z,63.33
2023-02-11T15:19:04.471Z,60.68
2023-02-11T15:21:34.858Z,62.68
2023-02-11T15:24:25.631Z,62.31
2023-02-11T15:27:19.032Z,63.14
2023-02-11T15:29:50.649Z,62.92
2023-02-11T15:32:25.935Z,60.63
2023-02-11T15:34:54.755Z,62.15
2023-02-11T15:37:43.202Z,61.01
2023-02-11T15:40:19.158Z,62.31
2023-02-11T15:43:02.877Z,61.75
2023-02-11T15:45:56.822Z,61.16
2023-02-11T15:49:21.634Z,62.16
2023-02-11T15:51:55.896Z,60.92
2023-02-11T15:54:47.766Z,61.25
2023-02-11T15:57:19.424Z,61.62
2023-02-11T16:00:28.449Z,60.74
2023-02-11T16:03:05.742Z,62.03
2023-02-11T16:06:43.848Z,62.03
2023-02-11T16:09:26.979Z,62.10
2023-02-11T16:12:27.229Z,62.39
2023-02-11T16:15:00.183Z,62.69
2023-02-11T16:17:50.835Z,61.93
2023-02-11T16:20:55.716Z,60.82
2023-02-11T16:23:36.381Z,61.07
2023-02-11T16:26:31.280Z,61.01
2023-02-11T16:29:33.398Z,62.24
2023-02-11T16:32:28.724Z,60.99
2023-02-11T16:35:05.633Z,62.49
2023-02-11T16:38:00.534Z,61.56
2023-02-11T16:40:34.788Z,61.72
2023-02-11T16:43:03.636Z,61.76
2023-02-11T16:45:32.455Z,62.01
2023-02-11T16:49:01.553Z,62.25
2023-02-11T16:51:51.921Z,62.23
2023-02-11T16:54:52.727Z,62.31
2023-02-11T16:57:24.095Z,62.31
2023-02-11T17:00:03.541Z,61.76
2023-02-11T17:02:42.718Z,62.83
2023-02-11T17:06:03.385Z,62.26
2023-02-11T17:08:32.364Z,62.87
2023-02-11T17:11:04.227Z,62.49
2023-02-11T17:13:37.006Z,63.35
2023-02-11T17:16:33.943Z,62.77
2023-02-11T17:19:02.960Z,62.93
2023-02-11T17:22:01.637Z,62.30
2023-02-11T17:24:42.040Z,63.04
2023-02-11T17:27:23.538Z,62.89
2023-02-11T17:29:52.268Z,63.74
2023-02-11T17:32:29.852Z,62.94
2023-02-11T17:35:01.575Z,62.13
2023-02-11T17:37:33.082Z,62.64
2023-02-11T17:40:21.740Z,63.07
2023-02-11T17:42:53.620Z,62.53
2023-02-11T17:45:24.904Z,62.58
2023-02-11T17:47:55.576Z,62.66
2023-02-11T17:50:29.205Z,63.69
2023-02-11T17:52:57.930Z,63.31
2023-02-11T17:55:26.652Z,63.06
2023-02-11T17:57:55.819Z,63.89
2023-02-11T18:00:28.602Z,64.35
2023-02-11T18:03:03.595Z,64.39
2023-02-11T18:05:36.710Z,65.19
2023-02-11T18:08:08.784Z,64.95
2023-02-11T18:10:40.307Z,63.51
2023-02-11T18:13:11.385Z,64.05
2023-02-11T18:15:47.707Z,63.86
2023-02-11T18:18:19.095Z,63.73
2023-02-11T18:21:02.070Z,63.48
2023-02-11T18:23:39.567Z,63.68
2023-02-11T18:26:12.379Z,63.88
2023-02-11T18:28:45.829Z,63.88
2023-02-11T18:31:43.615Z,64.00
2023-02-11T18:34:19.720Z,63.89
2023-02-11T18:37:17.372Z,64.89
2023-02-11T18:39:51.491Z,64.91
2023-02-11T18:42:22.421Z,64.40
2023-02-11T18:44:53.162Z,64.75
2023-02-11T18:47:48.056Z,64.99
2023-02-11T18:50:22.404Z,64.94
2023-02-11T18:52:57.170Z,64.70
2023-02-11T18:55:26.059Z,65.28
2023-02-11T18:57:57.335Z,65.48
2023-02-11T19:00:28.647Z,65.44
2023-02-11T19:03:00.641Z,65.19
2023-02-11T19:05:33.629Z,65.62
2023-02-11T19:08:07.558Z,66.37
2023-02-11T19:10:57.275Z,65.89
2023-02-11T19:13:52.365Z,66.70
2023-02-11T19:16:21.225Z,66.23
2023-02-11T19:18:49.786Z,66.61
2023-02-11T19:21:24.000Z,66.09
2023-02-11T19:24:16.265Z,66.04
2023-02-11T19:27:11.034Z,65.52
2023-02-11T19:29:58.282Z,65.67
2023-02-11T19:32:26.708Z,65.55
2023-02-11T19:34:58.342Z,65.32
2023-02-11T19:37:28.916Z,65.42
2023-02-11T19:40:22.073Z,65.63
2023-02-11T19:43:01.117Z,65.76
2023-02-11T19:45:50.627Z,65.71
2023-02-11T19:48:21.918Z,66.01
2023-02-11T19:51:39.763Z,66.15
2023-02-11T19:54:47.970Z,65.83
2023-02-11T19:58:06.215Z,66.82
2023-02-11T20:01:24.339Z,66.62
2023-02-11T20:05:13.939Z,66.35
2023-02-11T20:07:45.804Z,66.27
2023-02-11T20:10:55.653Z,66.83
2023-02-11T20:13:58.514Z,66.53
2023-02-11T20:16:48.193Z,66.59
2023-02-11T20:19:43.520Z,66.51
2023-02-11T20:22:40.857Z,67.03
2023-02-11T20:25:42.714Z,67.37
2023-02-11T20:29:16.978Z,67.06
2023-02-11T20:31:58.670Z,68.11
2023-02-11T20:34:49.042Z,67.38
2023-02-11T20:37:26.531Z,67.45
2023-02-11T20:40:15.184Z,67.00
2023-02-11T20:42:48.473Z,66.77
2023-02-11T20:45:25.487Z,66.46
2023-02-11T20:48:03.194Z,66.23
2023-02-11T20:50:35.118Z,66.00
2023-02-11T20:53:06.503Z,65.89
2023-02-11T20:55:38.617Z,65.83
2023-02-11T20:58:12.743Z,66.06
2023-02-11T21:01:21.188Z,66.71
2023-02-11T21:04:09.274Z,66.66
2023-02-11T21:06:43.597Z,66.24
2023-02-11T21:09:15.207Z,66.15
2023-02-11T21:11:46.920Z,66.58
2023-02-11T21:14:15.718Z,66.69
2023-02-11T21:16:47.569Z,66.21
2023-02-11T21:19:16.253Z,66.10
2023-02-11T21:21:57.464Z,65.96
2023-02-11T21:24:28.778Z,66.31
2023-02-11T21:27:03.249Z,66.55
2023-02-11T21:29:36.691Z,66.81
2023-02-11T21:32:22.503Z,67.48
2023-02-11T21:35:00.027Z,67.25
2023-02-11T21:37:33.471Z,66.92
2023-02-11T21:40:05.142Z,66.86
2023-02-11T21:42:39.138Z,66.93
2023-02-11T21:45:10.744Z,67.08
2023-02-11T21:47:39.068Z,66.79
2023-02-11T21:50:11.564Z,66.73
2023-02-11T21:53:04.294Z,66.67
2023-02-11T21:55:36.960Z,67.23
2023-02-11T21:58:08.006Z,67.63
2023-02-11T22:00:43.918Z,67.54
2023-02-11T22:03:27.818Z,67.40
2023-02-11T22:06:16.544Z,67.79
2023-02-11T22:08:52.421Z,67.75
2023-02-11T22:11:41.073Z,67.73
2023-02-11T22:14:12.308Z,67.67
2023-02-11T22:16:44.173Z,68.48
2023-02-11T22:19:15.719Z,68.05
2023-02-11T22:22:29.209Z,67.89
2023-02-11T22:25:02.046Z,67.80
2023-02-11T22:27:56.959Z,67.53
2023-02-11T22:31:19.104Z,67.45
2023-02-11T22:33:50.491Z,67.29
2023-02-11T22:36:29.454Z,67.54
2023-02-11T22:39:04.208Z,67.98
2023-02-11T22:42:00.255Z,68.42
2023-02-11T22:44:48.637Z,68.19
2023-02-11T22:47:17.015Z,68.25
2023-02-11T22:49:48.174Z,68.04
2023-02-11T22:53:13.084Z,67.66
2023-02-11T22:55:46.970Z,67.28
2023-02-11T22:58:38.219Z,67.48
2023-02-11T23:01:27.099Z,67.58
2023-02-11T23:03:55.677Z,67.35
2023-02-11T23:06:24.184Z,67.05
2023-02-11T23:09:09.941Z,66.81
2023-02-11T23:11:44.146Z,67.18
2023-02-11T23:14:25.489Z,67.15
2023-02-11T23:17:16.902Z,66.93
2023-02-11T23:20:06.028Z,66.85
2023-02-11T23:22:49.447Z,66.80
2023-02-11T23:26:30.762Z,67.44
2023-02-11T23:29:12.322Z,67.70
2023-02-11T23:31:44.035Z,68.26
2023-02-11T23:35:30.989Z,67.79
2023-02-11T23:38:07.638Z,67.31
2023-02-11T23:40:44.087Z,67.10
2023-02-11T23:43:15.608Z,67.07
2023-02-11T23:45:46.962Z,67.13
2023-02-11T23:48:36.072Z,67.01
2023-02-11T23:51:11.185Z,67.04
2023-02-11T23:54:12.226Z,67.02
2023-02-11T23:56:42.384Z,66.81
2023-02-11T23:59:51.479Z,66.54
